Amelia, Virginia
Current Conditions -  °F | °C
As of 4:15 PM on Monday 24 Nov 2014 (Local Time) from KW81 Reporting Station
Clear Clear  
Wind Chill: 71°   Ceiling: Unl
Heat Index: 71°   Visibility: 10mi
Dew Point: 55°   Wind: 15mph
Humidity: 58%   Direction: 190°S
Pressure: 29.71"   Gusts: 21mph
Location:  37.3498°N, 77.9661°W
Report Text: KW81 242115Z AUTO 19013G18KT 10SM CLR 22/13 A2971 RMK AO1 T02170130
Loading
Personal Weather Stations






























Interactive Weather Map New forecast layout! Learn more

10-Day Weather Forecast

Advertisements
Track Severe Weather on mobile